createdAt,value
2023-04-22T00:00:02.732Z,1.84
2023-04-22T00:01:02.755Z,1.87
2023-04-22T00:02:02.795Z,1.92
2023-04-22T00:03:03.003Z,1.85
2023-04-22T00:04:03.105Z,1.80
2023-04-22T00:05:03.119Z,1.86
2023-04-22T00:06:02.865Z,1.81
2023-04-22T00:07:02.883Z,1.82
2023-04-22T00:08:02.943Z,1.84
2023-04-22T00:09:02.932Z,1.83
2023-04-22T00:10:02.969Z,1.77
2023-04-22T00:11:03.014Z,1.83
2023-04-22T00:12:03.010Z,1.76
2023-04-22T00:13:03.028Z,1.78
2023-04-22T00:14:03.068Z,1.80
2023-04-22T00:15:03.155Z,1.79
2023-04-22T00:16:03.179Z,1.79
2023-04-22T00:17:03.182Z,1.78
2023-04-22T00:18:03.199Z,1.82
2023-04-22T00:19:03.203Z,1.82
2023-04-22T00:20:03.353Z,1.71
2023-04-22T00:21:03.288Z,1.75
2023-04-22T00:22:03.300Z,1.78
2023-04-22T00:23:03.429Z,1.76
2023-04-22T00:24:03.383Z,1.78
2023-04-22T00:25:03.407Z,1.70
2023-04-22T00:26:03.485Z,1.69
2023-04-22T00:27:03.485Z,1.71
2023-04-22T00:28:03.520Z,1.71
2023-04-22T00:29:03.602Z,1.68
2023-04-22T00:30:03.627Z,1.68
2023-04-22T00:31:03.757Z,1.68
2023-04-22T00:32:03.687Z,1.65
2023-04-22T00:33:03.781Z,1.70
2023-04-22T00:34:03.735Z,1.67
2023-04-22T00:35:03.778Z,1.71
2023-04-22T00:36:03.817Z,1.70
2023-04-22T00:37:03.855Z,1.68
2023-04-22T00:38:03.853Z,1.65
2023-04-22T00:39:04.036Z,1.66
2023-04-22T00:40:03.939Z,1.61
2023-04-22T00:41:03.986Z,1.63
2023-04-22T00:42:04.020Z,1.61
2023-04-22T00:43:04.061Z,1.62
2023-04-22T00:44:04.068Z,1.63
2023-04-22T00:45:04.126Z,1.64
2023-04-22T00:46:04.203Z,1.57
2023-04-22T00:47:04.371Z,1.58
2023-04-22T00:48:04.258Z,1.58
2023-04-22T00:49:04.266Z,1.57
2023-04-22T00:50:04.279Z,1.52
2023-04-22T00:51:04.345Z,1.58
2023-04-22T00:52:04.361Z,1.57
2023-04-22T00:53:04.396Z,1.55
2023-04-22T00:54:04.454Z,1.59
2023-04-22T00:55:04.444Z,1.55
2023-04-22T00:56:04.484Z,1.52
2023-04-22T00:57:04.546Z,1.56
2023-04-22T00:58:04.543Z,1.54
2023-04-22T00:59:04.622Z,1.54
2023-04-22T01:00:04.616Z,1.56
2023-04-22T01:01:04.686Z,1.51
2023-04-22T01:02:04.711Z,1.50
2023-04-22T01:03:04.840Z,1.52
2023-04-22T01:04:04.832Z,1.50
2023-04-22T01:05:04.730Z,1.46
2023-04-22T01:06:04.780Z,1.47
2023-04-22T01:07:04.827Z,1.50
2023-04-22T01:08:04.816Z,1.47
2023-04-22T01:09:04.823Z,1.46
2023-04-22T01:10:04.921Z,1.51
2023-04-22T01:11:04.914Z,1.48
2023-04-22T01:12:04.948Z,1.49
2023-04-22T01:13:04.959Z,1.50
2023-04-22T01:14:04.993Z,1.51
2023-04-22T01:15:05.266Z,1.54
2023-04-22T01:16:05.104Z,1.50
2023-04-22T01:17:05.171Z,1.45
2023-04-22T01:18:05.197Z,1.45
2023-04-22T01:19:05.175Z,1.46
2023-04-22T01:20:05.199Z,1.45
2023-04-22T01:21:05.216Z,1.44
2023-04-22T01:22:05.266Z,1.48
2023-04-22T01:23:05.301Z,1.48
2023-04-22T01:24:05.343Z,1.46
2023-04-22T01:25:05.375Z,1.44
2023-04-22T01:26:05.379Z,1.45
2023-04-22T01:27:05.390Z,1.46
2023-04-22T01:28:05.425Z,1.46
2023-04-22T01:29:05.461Z,1.50
2023-04-22T01:30:05.504Z,1.50
2023-04-22T01:31:05.556Z,1.50
2023-04-22T01:32:05.624Z,1.45
2023-04-22T01:33:05.618Z,1.47
2023-04-22T01:34:05.622Z,1.45
2023-04-22T01:35:05.670Z,1.42
2023-04-22T01:36:05.697Z,1.45
2023-04-22T01:37:05.697Z,1.45
2023-04-22T01:38:05.737Z,1.44
2023-04-22T01:39:05.744Z,1.45
2023-04-22T01:40:05.766Z,1.43
2023-04-22T01:41:05.842Z,1.43
2023-04-22T01:42:05.919Z,1.45
2023-04-22T01:43:05.869Z,1.49
2023-04-22T01:44:05.897Z,1.49
2023-04-22T01:45:05.920Z,1.43
2023-04-22T01:46:05.987Z,1.46
2023-04-22T01:47:05.980Z,1.43
2023-04-22T01:48:06.037Z,1.44
2023-04-22T01:49:06.042Z,1.44
2023-04-22T01:50:06.049Z,1.45
2023-04-22T01:51:06.071Z,1.46
2023-04-22T01:52:06.121Z,1.45
2023-04-22T01:53:06.144Z,1.44
2023-04-22T01:54:06.207Z,1.46
2023-04-22T01:55:06.271Z,1.42
2023-04-22T01:56:06.285Z,1.43
2023-04-22T01:57:06.294Z,1.45
2023-04-22T01:58:06.317Z,1.43
2023-04-22T01:59:06.358Z,1.44
2023-04-22T02:00:06.349Z,1.43
2023-04-22T02:01:06.416Z,1.44
2023-04-22T02:02:06.441Z,1.42
2023-04-22T02:03:06.539Z,1.41
2023-04-22T02:04:06.480Z,1.43
2023-04-22T02:05:06.626Z,1.40
2023-04-22T02:06:06.545Z,1.43
2023-04-22T02:07:06.582Z,1.38
2023-04-22T02:08:06.611Z,1.42
2023-04-22T02:09:07.338Z,1.43
2023-04-22T02:10:06.646Z,1.40
2023-04-22T02:11:06.653Z,1.43
2023-04-22T02:12:06.665Z,1.44
2023-04-22T02:13:06.675Z,1.37
2023-04-22T02:14:06.704Z,1.38
2023-04-22T02:15:06.763Z,1.41
2023-04-22T02:16:06.827Z,1.39
2023-04-22T02:17:06.905Z,1.38
2023-04-22T02:18:06.824Z,1.41
2023-04-22T02:19:06.867Z,1.38
2023-04-22T02:20:06.916Z,1.43
2023-04-22T02:21:06.916Z,1.44
2023-04-22T02:22:07.031Z,1.42
2023-04-22T02:23:06.981Z,1.42
2023-04-22T02:24:07.091Z,1.42
2023-04-22T02:25:07.092Z,1.40
2023-04-22T02:26:07.109Z,1.43
2023-04-22T02:27:07.099Z,1.44
2023-04-22T02:28:07.132Z,1.44
2023-04-22T02:29:07.185Z,1.44
2023-04-22T02:30:07.236Z,1.42
2023-04-22T02:31:07.253Z,1.41
2023-04-22T02:32:07.268Z,1.41
2023-04-22T02:33:07.333Z,1.41
2023-04-22T02:34:07.331Z,1.44
2023-04-22T02:35:07.362Z,1.40
2023-04-22T02:36:07.749Z,1.42
2023-04-22T02:37:07.465Z,1.39
2023-04-22T02:38:07.513Z,1.42
2023-04-22T02:39:07.591Z,1.40
2023-04-22T02:40:07.555Z,1.42
2023-04-22T02:41:07.584Z,1.39
2023-04-22T02:42:07.525Z,1.39
2023-04-22T02:43:07.554Z,1.36
2023-04-22T02:44:07.588Z,1.35
2023-04-22T02:45:07.664Z,1.41
2023-04-22T02:46:07.764Z,1.34
2023-04-22T02:47:07.809Z,1.38
2023-04-22T02:48:08.018Z,1.39
2023-04-22T02:49:07.748Z,1.35
2023-04-22T02:50:07.840Z,1.34
2023-04-22T02:51:07.893Z,1.36
2023-04-22T02:52:07.812Z,1.34
2023-04-22T02:53:07.835Z,1.35
2023-04-22T02:54:07.909Z,1.34
2023-04-22T02:55:07.931Z,1.37
2023-04-22T02:56:07.954Z,1.36
2023-04-22T02:57:07.960Z,1.31
2023-04-22T02:58:07.984Z,1.34
2023-04-22T02:59:08.012Z,1.36
2023-04-22T03:00:08.068Z,1.38
2023-04-22T03:01:08.204Z,1.34
2023-04-22T03:02:08.326Z,1.33
2023-04-22T03:03:08.323Z,1.34
2023-04-22T03:04:08.248Z,1.32
2023-04-22T03:05:08.231Z,1.36
2023-04-22T03:06:08.246Z,1.36
2023-04-22T03:07:08.274Z,1.35
2023-04-22T03:08:08.297Z,1.35
2023-04-22T03:09:08.363Z,1.36
2023-04-22T03:10:08.477Z,1.34
2023-04-22T03:11:08.428Z,1.31
2023-04-22T03:12:08.463Z,1.33
2023-04-22T03:13:08.539Z,1.33
2023-04-22T03:14:08.538Z,1.32
2023-04-22T03:15:08.539Z,1.30
2023-04-22T03:16:10.343Z,1.32
2023-04-22T03:17:08.629Z,1.31
2023-04-22T03:18:08.719Z,1.32
2023-04-22T03:19:08.652Z,1.31
2023-04-22T03:20:08.659Z,1.30
2023-04-22T03:21:08.719Z,1.31
2023-04-22T03:22:08.740Z,1.33
2023-04-22T03:23:08.777Z,1.37
2023-04-22T03:24:08.792Z,1.30
2023-04-22T03:25:08.810Z,1.29
2023-04-22T03:26:08.878Z,1.27
2023-04-22T03:27:08.899Z,1.28
2023-04-22T03:28:08.906Z,1.25
2023-04-22T03:29:08.940Z,1.25
2023-04-22T03:30:08.949Z,1.26
2023-04-22T03:31:09.042Z,1.26
2023-04-22T03:32:09.094Z,1.25
2023-04-22T03:33:09.133Z,1.29
2023-04-22T03:34:09.096Z,1.25
2023-04-22T03:35:09.182Z,1.26
2023-04-22T03:36:09.180Z,1.27
2023-04-22T03:37:09.227Z,1.26
2023-04-22T03:38:09.266Z,1.25
2023-04-22T03:39:09.272Z,1.28
2023-04-22T03:40:09.289Z,1.29
2023-04-22T03:41:09.367Z,1.30
2023-04-22T03:42:09.379Z,1.26
2023-04-22T03:43:09.403Z,1.25
2023-04-22T03:44:09.429Z,1.26
2023-04-22T03:45:09.484Z,1.28
2023-04-22T03:46:09.566Z,1.27
2023-04-22T03:47:09.544Z,1.25
2023-04-22T03:48:09.621Z,1.28
2023-04-22T03:49:09.611Z,1.24
2023-04-22T03:50:09.641Z,1.21
2023-04-22T03:51:09.666Z,1.22
2023-04-22T03:52:09.682Z,1.24
2023-04-22T03:53:09.733Z,1.22
2023-04-22T03:54:09.784Z,1.24
2023-04-22T03:55:09.789Z,1.24
2023-04-22T03:56:09.835Z,1.28
2023-04-22T03:57:09.894Z,1.21
2023-04-22T03:58:09.883Z,1.22
2023-04-22T03:59:09.913Z,1.21
2023-04-22T04:00:09.965Z,1.19
2023-04-22T04:01:09.989Z,1.20
2023-04-22T04:02:10.088Z,1.21
2023-04-22T04:03:10.240Z,1.20
2023-04-22T04:04:10.366Z,1.20
2023-04-22T04:05:10.201Z,1.21
2023-04-22T04:06:10.203Z,1.20
2023-04-22T04:07:10.208Z,1.21
2023-04-22T04:08:10.350Z,1.19
2023-04-22T04:09:10.271Z,1.18
2023-04-22T04:10:10.296Z,1.18
2023-04-22T04:11:10.349Z,1.18
2023-04-22T04:12:10.391Z,1.18
2023-04-22T04:13:10.420Z,1.18
2023-04-22T04:14:10.490Z,1.18
2023-04-22T04:15:10.502Z,1.15
2023-04-22T04:16:10.566Z,1.16
2023-04-22T04:17:10.551Z,1.17
2023-04-22T04:18:10.597Z,1.19
2023-04-22T04:19:10.627Z,1.18
2023-04-22T04:20:10.672Z,1.15
2023-04-22T04:21:10.856Z,1.17
2023-04-22T04:22:10.756Z,1.18
2023-04-22T04:23:10.784Z,1.17
2023-04-22T04:24:10.810Z,1.18
2023-04-22T04:25:10.874Z,1.14
2023-04-22T04:26:10.885Z,1.15
2023-04-22T04:27:10.949Z,1.17
2023-04-22T04:28:10.965Z,1.16
2023-04-22T04:29:11.058Z,1.12
2023-04-22T04:30:11.041Z,1.13
2023-04-22T04:31:11.096Z,1.14
2023-04-22T04:32:11.085Z,1.15
2023-04-22T04:33:11.265Z,1.15
2023-04-22T04:34:11.181Z,1.15
2023-04-22T04:35:11.238Z,1.13
2023-04-22T04:36:11.270Z,1.14
2023-04-22T04:37:11.283Z,1.13
2023-04-22T04:38:11.337Z,1.11
2023-04-22T04:39:11.364Z,1.14
2023-04-22T04:40:11.411Z,1.11
2023-04-22T04:41:11.453Z,1.11
2023-04-22T04:42:11.523Z,1.10
2023-04-22T04:43:11.543Z,1.11
2023-04-22T04:44:11.573Z,1.10
2023-04-22T04:45:11.629Z,1.13
2023-04-22T04:46:11.684Z,1.11
2023-04-22T04:47:11.693Z,1.12
2023-04-22T04:48:11.800Z,1.10
2023-04-22T04:49:11.793Z,1.12
2023-04-22T04:50:11.869Z,1.11
2023-04-22T04:51:11.898Z,1.11
2023-04-22T04:52:11.976Z,1.10
2023-04-22T04:53:11.945Z,1.09
2023-04-22T04:54:11.994Z,1.11
2023-04-22T04:55:12.022Z,1.12
2023-04-22T04:56:12.161Z,1.13
2023-04-22T04:57:12.105Z,1.09
2023-04-22T04:58:12.182Z,1.11
2023-04-22T04:59:12.198Z,1.12
2023-04-22T05:00:12.211Z,1.12
2023-04-22T05:01:12.310Z,1.14
2023-04-22T05:02:12.437Z,1.13
2023-04-22T05:03:12.494Z,1.13
2023-04-22T05:04:12.625Z,1.14
2023-04-22T05:05:12.421Z,1.10
2023-04-22T05:06:12.452Z,1.09
2023-04-22T05:07:12.513Z,1.12
2023-04-22T05:08:12.526Z,1.12
2023-04-22T05:09:12.588Z,1.13
2023-04-22T05:10:12.594Z,1.15
2023-04-22T05:11:12.633Z,1.13
2023-04-22T05:12:12.703Z,1.13
2023-04-22T05:13:12.743Z,1.13
2023-04-22T05:14:12.795Z,1.10
2023-04-22T05:15:12.816Z,1.11
2023-04-22T05:16:12.911Z,1.11
2023-04-22T05:17:12.906Z,1.12
2023-04-22T05:18:12.956Z,1.13
2023-04-22T05:19:12.982Z,1.12
2023-04-22T05:20:13.023Z,1.14
2023-04-22T05:21:13.083Z,1.14
2023-04-22T05:22:13.154Z,1.15
2023-04-22T05:23:13.163Z,1.15
2023-04-22T05:24:13.200Z,1.14
2023-04-22T05:25:13.274Z,1.11
2023-04-22T05:26:13.312Z,1.12
2023-04-22T05:27:13.337Z,1.12
2023-04-22T05:28:13.384Z,1.13
2023-04-22T05:29:13.409Z,1.14
2023-04-22T05:30:13.483Z,1.15
2023-04-22T05:31:13.502Z,1.18
2023-04-22T05:32:13.678Z,1.17
2023-04-22T05:33:13.696Z,1.18
2023-04-22T05:34:13.688Z,1.17
2023-04-22T05:35:13.661Z,1.16
2023-04-22T05:36:13.800Z,1.15
2023-04-22T05:37:13.768Z,1.11
2023-04-22T05:38:13.806Z,1.10
2023-04-22T05:39:13.869Z,1.12
2023-04-22T05:40:13.906Z,1.17
2023-04-22T05:41:13.945Z,1.22
2023-04-22T05:42:14.012Z,1.16
2023-04-22T05:43:14.045Z,1.13
2023-04-22T05:44:14.110Z,1.07
2023-04-22T05:45:14.119Z,1.08
2023-04-22T05:46:14.403Z,1.05
2023-04-22T05:47:14.227Z,1.03
2023-04-22T05:48:14.283Z,1.04
2023-04-22T05:49:14.331Z,1.02
2023-04-22T05:50:14.401Z,1.03
2023-04-22T05:51:14.439Z,1.02
2023-04-22T05:52:14.470Z,1.02
2023-04-22T05:53:14.525Z,1.02
2023-04-22T05:54:14.605Z,0.99
2023-04-22T05:55:14.682Z,1.03
2023-04-22T05:56:14.706Z,1.01
2023-04-22T05:57:14.687Z,0.99
2023-04-22T05:58:14.748Z,1.00
2023-04-22T05:59:14.756Z,1.03
2023-04-22T06:00:14.820Z,1.03
2023-04-22T06:01:14.863Z,1.01
2023-04-22T06:02:14.936Z,1.03
2023-04-22T06:03:15.063Z,1.04
2023-04-22T06:04:15.191Z,1.06
2023-04-22T06:05:15.139Z,1.08
2023-04-22T06:06:15.099Z,1.09
2023-04-22T06:07:15.138Z,1.10
2023-04-22T06:08:15.218Z,1.11
2023-04-22T06:09:15.190Z,1.12
2023-04-22T06:10:15.212Z,1.10
2023-04-22T06:11:15.291Z,1.13
2023-04-22T06:12:15.317Z,1.12
2023-04-22T06:13:15.353Z,1.13
2023-04-22T06:14:15.407Z,1.14
2023-04-22T06:15:15.456Z,1.15
2023-04-22T06:16:15.858Z,1.25
2023-04-22T06:17:15.498Z,1.21
2023-04-22T06:18:15.537Z,1.16
2023-04-22T06:19:15.578Z,1.14
2023-04-22T06:20:15.629Z,1.15
2023-04-22T06:21:15.702Z,1.17
2023-04-22T06:22:15.742Z,1.12
2023-04-22T06:23:15.721Z,1.16
2023-04-22T06:24:15.770Z,1.14
2023-04-22T06:25:15.804Z,1.15
2023-04-22T06:26:15.843Z,1.18
2023-04-22T06:27:15.975Z,1.19
2023-04-22T06:28:15.931Z,1.21
2023-04-22T06:29:16.001Z,1.24
2023-04-22T06:30:16.023Z,1.34
2023-04-22T06:31:16.822Z,1.26
2023-04-22T06:32:16.111Z,1.26
2023-04-22T06:33:16.253Z,1.22
2023-04-22T06:34:16.168Z,1.22
2023-04-22T06:35:16.228Z,1.20
2023-04-22T06:36:16.281Z,1.21
2023-04-22T06:37:16.286Z,1.20
2023-04-22T06:38:16.348Z,1.16
2023-04-22T06:39:16.389Z,1.14
2023-04-22T06:40:16.428Z,1.17
2023-04-22T06:41:16.462Z,1.09
2023-04-22T06:42:16.517Z,0.91
2023-04-22T06:43:16.561Z,0.82
2023-04-22T06:44:16.625Z,0.83
2023-04-22T06:45:16.627Z,0.68
2023-04-22T06:46:16.711Z,0.65
2023-04-22T06:47:16.736Z,0.61
2023-04-22T06:48:16.827Z,0.66
2023-04-22T06:49:16.850Z,0.70
2023-04-22T06:50:16.901Z,0.65
2023-04-22T06:51:16.936Z,0.57
2023-04-22T06:52:17.000Z,0.49
2023-04-22T06:53:17.052Z,0.50
2023-04-22T06:54:17.094Z,0.52
2023-04-22T06:55:17.164Z,0.53
2023-04-22T06:56:17.232Z,0.55
2023-04-22T06:57:17.264Z,0.55
2023-04-22T06:58:17.329Z,0.52
2023-04-22T06:59:17.360Z,0.53
2023-04-22T07:00:17.415Z,0.51
2023-04-22T07:01:17.491Z,0.48
2023-04-22T07:02:17.644Z,0.64
2023-04-22T07:03:17.702Z,0.67
2023-04-22T07:04:17.690Z,0.74
2023-04-22T07:05:17.693Z,0.79
2023-04-22T07:06:17.757Z,0.82
2023-04-22T07:07:17.813Z,0.84
2023-04-22T07:08:17.904Z,0.89
2023-04-22T07:09:17.928Z,0.93
2023-04-22T07:10:17.985Z,0.93
2023-04-22T07:11:18.376Z,0.95
2023-04-22T07:12:18.068Z,0.96
2023-04-22T07:13:18.105Z,0.97
2023-04-22T07:14:18.168Z,0.91
2023-04-22T07:15:18.208Z,0.86
2023-04-22T07:16:18.311Z,0.86
2023-04-22T07:17:18.333Z,0.94
2023-04-22T07:18:18.354Z,1.05
2023-04-22T07:19:18.418Z,1.12
2023-04-22T07:20:18.430Z,1.14
2023-04-22T07:21:18.485Z,1.16
2023-04-22T07:22:18.594Z,1.13
2023-04-22T07:23:18.604Z,1.04
2023-04-22T07:24:18.615Z,1.04
2023-04-22T07:25:18.677Z,1.02
2023-04-22T07:26:18.736Z,1.12
2023-04-22T07:27:18.734Z,1.10
2023-04-22T07:28:18.810Z,1.19
2023-04-22T07:29:18.851Z,1.17
2023-04-22T07:30:18.894Z,1.19
2023-04-22T07:31:18.962Z,1.18
2023-04-22T07:32:19.001Z,1.20
2023-04-22T07:33:19.021Z,1.21
2023-04-22T07:34:19.077Z,1.23
2023-04-22T07:35:19.153Z,1.26
2023-04-22T07:36:19.229Z,1.34
2023-04-22T07:37:19.237Z,1.27
2023-04-22T07:38:19.293Z,1.22
2023-04-22T07:39:19.346Z,1.21
2023-04-22T07:40:19.401Z,1.27
2023-04-22T07:41:19.453Z,1.20
2023-04-22T07:42:19.486Z,1.20
2023-04-22T07:43:19.529Z,1.22
2023-04-22T07:44:19.651Z,1.25
2023-04-22T07:45:19.642Z,1.24
2023-04-22T07:46:19.763Z,1.28
2023-04-22T07:47:19.712Z,1.38
2023-04-22T07:48:19.757Z,1.44
2023-04-22T07:49:19.823Z,1.49
2023-04-22T07:50:19.848Z,1.51
2023-04-22T07:51:19.905Z,1.55
2023-04-22T07:52:19.940Z,1.52
2023-04-22T07:53:19.984Z,1.53
2023-04-22T07:54:20.033Z,1.49
2023-04-22T07:55:20.049Z,1.44
2023-04-22T07:56:20.110Z,1.39
2023-04-22T07:57:20.136Z,1.32
2023-04-22T07:58:20.186Z,1.17
2023-04-22T07:59:20.250Z,1.18
2023-04-22T08:00:20.283Z,1.22
2023-04-22T08:01:20.394Z,1.07
2023-04-22T08:02:20.489Z,0.91
2023-04-22T08:03:21.567Z,0.75
2023-04-22T08:04:20.710Z,0.74
2023-04-22T08:05:20.656Z,0.80
2023-04-22T08:06:20.617Z,0.75
2023-04-22T08:08:20.644Z,1.00
2023-04-22T08:09:20.723Z,1.01
2023-04-22T08:10:20.634Z,1.06
2023-04-22T08:11:20.641Z,1.06
2023-04-22T08:12:20.612Z,1.11
2023-04-22T08:13:20.626Z,1.15
2023-04-22T08:14:20.604Z,1.13
2023-04-22T08:15:20.680Z,1.24
2023-04-22T08:16:20.710Z,1.22
2023-04-22T08:17:20.588Z,1.20
2023-04-22T08:18:20.587Z,1.12
2023-04-22T08:19:20.566Z,0.99
2023-04-22T08:20:20.563Z,0.87
2023-04-22T08:21:20.588Z,0.61
2023-04-22T08:22:20.575Z,0.40
2023-04-22T08:23:20.564Z,0.34
2023-04-22T08:24:20.541Z,0.40
2023-04-22T08:25:20.560Z,0.50
2023-04-22T08:26:20.530Z,0.69
2023-04-22T08:27:20.534Z,0.93
2023-04-22T08:28:20.515Z,1.20
2023-04-22T08:29:20.533Z,1.23
2023-04-22T08:30:20.500Z,1.59
2023-04-22T08:31:20.540Z,1.64
2023-04-22T08:32:20.497Z,1.78
2023-04-22T08:33:20.493Z,1.52
2023-04-22T08:34:20.497Z,1.44
2023-04-22T08:35:20.490Z,1.49
2023-04-22T08:36:20.494Z,1.09
2023-04-22T08:37:20.482Z,1.30
2023-04-22T08:38:20.502Z,1.34
2023-04-22T08:39:20.450Z,1.36
2023-04-22T08:40:20.429Z,1.31
2023-04-22T08:41:20.443Z,1.01
2023-04-22T08:42:20.460Z,0.91
2023-04-22T08:43:20.421Z,0.64
2023-04-22T08:44:20.406Z,0.67
2023-04-22T08:45:20.408Z,0.52
2023-04-22T08:46:20.428Z,0.35
2023-04-22T08:47:20.413Z,0.36
2023-04-22T08:48:20.429Z,0.34
2023-04-22T08:49:20.499Z,0.34
2023-04-22T08:50:20.535Z,0.34
2023-04-22T08:51:20.561Z,0.36
2023-04-22T08:52:20.637Z,0.50
2023-04-22T08:53:22.348Z,0.42
2023-04-22T08:54:20.681Z,0.40
2023-04-22T08:55:20.655Z,0.37
2023-04-22T08:56:20.662Z,0.34
2023-04-22T08:57:20.630Z,0.71
2023-04-22T08:58:20.647Z,1.40
2023-04-22T08:59:20.633Z,1.69
2023-04-22T09:00:20.689Z,2.21
2023-04-22T09:01:20.709Z,2.26
2023-04-22T09:02:20.669Z,1.98
2023-04-22T09:03:20.803Z,2.40
2023-04-22T09:04:20.705Z,4.66
2023-04-22T09:05:20.592Z,7.82
2023-04-22T09:06:20.610Z,7.90
2023-04-22T09:07:20.577Z,7.54
2023-04-22T09:08:20.589Z,4.73
2023-04-22T09:09:20.557Z,2.97
2023-04-22T09:10:20.570Z,3.95
2023-04-22T09:11:20.540Z,6.26
2023-04-22T09:12:20.566Z,6.90
2023-04-22T09:13:20.527Z,8.24
2023-04-22T09:14:20.540Z,3.97
2023-04-22T09:15:20.568Z,4.82
2023-04-22T09:16:20.586Z,4.76
2023-04-22T09:17:20.524Z,5.58
2023-04-22T09:18:20.520Z,5.78
2023-04-22T09:19:20.493Z,7.59
2023-04-22T09:20:20.589Z,6.05
2023-04-22T09:21:20.518Z,8.36
2023-04-22T09:22:20.493Z,10.04
2023-04-22T09:23:20.454Z,11.42
2023-04-22T09:24:20.514Z,11.61
2023-04-22T09:25:20.546Z,10.96
2023-04-22T09:26:20.582Z,13.45
2023-04-22T09:27:20.631Z,10.44
2023-04-22T09:28:20.637Z,10.51
2023-04-22T09:29:20.667Z,11.34
2023-04-22T09:30:20.718Z,6.97
2023-04-22T09:31:20.766Z,3.01
2023-04-22T09:32:20.814Z,2.95
2023-04-22T09:33:20.814Z,2.96
2023-04-22T09:34:20.842Z,2.59
2023-04-22T09:35:20.894Z,1.78
2023-04-22T09:36:20.941Z,1.49
2023-04-22T09:37:20.985Z,2.13
2023-04-22T09:38:21.006Z,4.01
2023-04-22T09:39:21.065Z,3.43
2023-04-22T09:40:21.096Z,2.96
2023-04-22T09:41:21.145Z,3.05
2023-04-22T09:42:21.163Z,3.48
2023-04-22T09:43:21.237Z,4.63
2023-04-22T09:44:21.256Z,6.33
2023-04-22T09:45:21.340Z,8.31
2023-04-22T09:46:22.992Z,8.58
2023-04-22T09:47:21.465Z,10.09
2023-04-22T09:48:21.453Z,10.44
2023-04-22T09:49:21.507Z,12.55
2023-04-22T09:50:21.523Z,13.11
2023-04-22T09:51:21.593Z,16.96
2023-04-22T09:52:21.616Z,16.94
2023-04-22T09:53:21.620Z,16.68
2023-04-22T09:54:21.697Z,16.70
2023-04-22T09:55:21.746Z,17.75
2023-04-22T09:56:21.738Z,20.08
2023-04-22T09:57:21.762Z,20.75
2023-04-22T09:58:21.773Z,19.88
2023-04-22T09:59:21.793Z,22.44
2023-04-22T10:00:21.812Z,23.58
2023-04-22T10:01:21.916Z,25.55
2023-04-22T10:02:21.985Z,25.59
2023-04-22T10:03:21.976Z,26.83
2023-04-22T10:04:21.931Z,25.12
2023-04-22T10:05:21.933Z,23.95
2023-04-22T10:06:21.983Z,23.92
2023-04-22T10:07:21.993Z,23.81
2023-04-22T10:08:22.019Z,22.51
2023-04-22T10:09:22.034Z,22.62
2023-04-22T10:10:22.070Z,23.13
2023-04-22T10:11:22.480Z,22.33
2023-04-22T10:12:32.772Z,20.53
2023-04-22T10:13:23.128Z,20.54
2023-04-22T10:14:22.133Z,20.03
2023-04-22T10:15:22.363Z,20.63
2023-04-22T10:16:22.189Z,20.27
2023-04-22T10:17:22.187Z,20.65
2023-04-22T10:18:22.102Z,21.86
2023-04-22T10:19:22.125Z,23.32
2023-04-22T10:20:22.080Z,24.02
2023-04-22T10:21:22.103Z,24.12
2023-04-22T10:22:22.215Z,25.03
2023-04-22T10:23:22.091Z,22.77
2023-04-22T10:24:22.068Z,18.33
2023-04-22T10:25:22.034Z,16.68
2023-04-22T10:26:22.042Z,17.86
2023-04-22T10:27:22.057Z,18.58
2023-04-22T10:28:22.099Z,19.25
2023-04-22T10:29:22.158Z,18.63
2023-04-22T10:30:22.168Z,18.28
2023-04-22T10:31:22.413Z,18.83
2023-04-22T10:32:22.275Z,18.73
2023-04-22T10:33:22.327Z,17.61
2023-04-22T10:34:22.340Z,16.04
2023-04-22T10:35:22.347Z,12.74
2023-04-22T10:36:22.415Z,13.11
2023-04-22T10:37:22.434Z,10.56
2023-04-22T10:38:22.516Z,12.18
2023-04-22T10:39:22.557Z,13.99
2023-04-22T10:40:22.649Z,13.36
2023-04-22T10:41:22.622Z,16.25
2023-04-22T10:42:22.629Z,15.56
2023-04-22T10:43:22.695Z,16.35
2023-04-22T10:44:22.731Z,18.64
2023-04-22T10:45:22.794Z,18.73
2023-04-22T10:46:22.847Z,18.86
2023-04-22T10:47:22.841Z,19.18
2023-04-22T10:48:22.905Z,20.22
2023-04-22T10:49:22.931Z,21.05
2023-04-22T10:50:22.944Z,22.15
2023-04-22T10:51:22.965Z,20.82
2023-04-22T10:52:23.029Z,22.36
2023-04-22T10:53:23.051Z,23.93
2023-04-22T10:54:23.113Z,23.79
2023-04-22T10:55:23.101Z,22.82
2023-04-22T10:56:23.153Z,25.81
2023-04-22T10:57:23.169Z,25.34
2023-04-22T10:58:23.198Z,25.26
2023-04-22T10:59:23.205Z,25.10
2023-04-22T11:00:23.254Z,24.26
2023-04-22T11:01:23.313Z,24.76
2023-04-22T11:02:23.355Z,25.49
2023-04-22T11:03:23.481Z,25.55
2023-04-22T11:04:23.618Z,25.69
2023-04-22T11:05:25.342Z,25.57
2023-04-22T11:06:23.699Z,25.32
2023-04-22T11:07:23.720Z,25.04
2023-04-22T11:08:23.810Z,25.98
2023-04-22T11:09:23.799Z,25.08
2023-04-22T11:10:23.834Z,25.89
2023-04-22T11:11:23.882Z,26.32
2023-04-22T11:12:23.916Z,25.71
2023-04-22T11:13:23.959Z,25.48
2023-04-22T11:14:23.985Z,25.85
2023-04-22T11:15:24.018Z,25.67
2023-04-22T11:16:24.081Z,26.47
2023-04-22T11:17:24.148Z,26.59
2023-04-22T11:18:24.138Z,26.09
2023-04-22T11:19:24.150Z,25.55
2023-04-22T11:20:24.160Z,26.35
2023-04-22T11:21:24.258Z,25.78
2023-04-22T11:22:24.269Z,25.01
2023-04-22T11:23:24.300Z,25.71
2023-04-22T11:24:24.296Z,25.91
2023-04-22T11:25:24.309Z,25.24
2023-04-22T11:26:24.372Z,24.66
2023-04-22T11:27:24.392Z,24.59
2023-04-22T11:28:24.414Z,25.34
2023-04-22T11:29:24.450Z,24.76
2023-04-22T11:30:24.496Z,23.26
2023-04-22T11:31:24.537Z,22.74
2023-04-22T11:32:24.590Z,24.40
2023-04-22T11:33:24.583Z,21.08
2023-04-22T11:34:24.622Z,21.97
2023-04-22T11:35:24.654Z,22.38
2023-04-22T11:36:24.725Z,22.36
2023-04-22T11:37:24.709Z,20.77
2023-04-22T11:38:24.735Z,23.04
2023-04-22T11:39:24.775Z,24.25
2023-04-22T11:41:24.814Z,25.94
2023-04-22T11:42:24.786Z,25.08
2023-04-22T11:43:24.810Z,25.20
2023-04-22T11:44:24.774Z,24.71
2023-04-22T11:45:24.790Z,24.26
2023-04-22T11:46:24.793Z,24.15
2023-04-22T11:47:24.776Z,24.24
2023-04-22T11:48:24.782Z,22.66
2023-04-22T11:49:24.852Z,21.30
2023-04-22T11:50:24.765Z,19.82
2023-04-22T11:51:24.724Z,16.70
2023-04-22T11:52:24.727Z,16.46
2023-04-22T11:53:24.705Z,17.31
2023-04-22T11:54:24.745Z,17.38
2023-04-22T11:55:24.710Z,16.76
2023-04-22T11:56:24.689Z,17.44
2023-04-22T11:57:24.682Z,15.87
2023-04-22T11:58:24.720Z,15.70
2023-04-22T11:59:24.690Z,16.32
2023-04-22T12:00:24.660Z,13.57
2023-04-22T12:01:24.674Z,15.06
2023-04-22T12:02:24.724Z,16.05
2023-04-22T12:03:25.049Z,14.81
2023-04-22T12:04:24.700Z,15.82
2023-04-22T12:05:24.673Z,14.44
2023-04-22T12:06:24.652Z,17.93
2023-04-22T12:07:24.610Z,14.91
2023-04-22T12:08:24.651Z,15.55
2023-04-22T12:09:24.615Z,12.09
2023-04-22T12:10:24.616Z,12.16
2023-04-22T12:11:24.600Z,12.30
2023-04-22T12:12:24.590Z,14.11
2023-04-22T12:13:24.584Z,13.48
2023-04-22T12:14:24.603Z,12.51
2023-04-22T12:15:24.570Z,14.17
2023-04-22T12:16:25.065Z,15.50
2023-04-22T12:17:24.592Z,14.60
2023-04-22T12:18:24.541Z,14.81
2023-04-22T12:19:24.547Z,15.07
2023-04-22T12:20:24.716Z,15.21
2023-04-22T12:21:24.521Z,14.86
2023-04-22T12:22:24.500Z,14.74
2023-04-22T12:23:24.504Z,11.90
2023-04-22T12:24:24.523Z,11.16
2023-04-22T12:25:24.489Z,11.09
2023-04-22T12:26:26.610Z,8.94
2023-04-22T12:27:24.476Z,7.96
2023-04-22T12:28:24.473Z,6.36
2023-04-22T12:29:24.464Z,8.28
2023-04-22T12:30:24.598Z,9.06
2023-04-22T12:31:24.497Z,10.34
2023-04-22T12:32:25.017Z,8.80
2023-04-22T12:33:24.471Z,5.03
2023-04-22T12:34:24.443Z,7.15
2023-04-22T12:35:24.470Z,6.69
2023-04-22T12:36:24.443Z,8.70
2023-04-22T12:37:24.409Z,8.60
2023-04-22T12:38:24.422Z,9.43
2023-04-22T12:39:24.420Z,10.08
2023-04-22T12:40:24.397Z,10.47
2023-04-22T12:41:24.434Z,10.88
2023-04-22T12:42:24.393Z,11.09
2023-04-22T12:43:24.392Z,11.91
2023-04-22T12:44:25.255Z,13.23
2023-04-22T12:45:24.355Z,13.25
2023-04-22T12:46:24.424Z,13.15
2023-04-22T12:47:24.368Z,14.07
2023-04-22T12:48:24.373Z,14.02
2023-04-22T12:49:24.328Z,13.84
2023-04-22T12:50:24.345Z,13.10
2023-04-22T12:51:24.361Z,12.07
2023-04-22T12:52:24.335Z,11.07
2023-04-22T12:53:24.308Z,10.26
2023-04-22T12:54:24.311Z,8.11
2023-04-22T12:55:24.297Z,8.80
2023-04-22T12:56:24.300Z,8.24
2023-04-22T12:57:24.277Z,6.68
2023-04-22T12:58:24.300Z,7.42
2023-04-22T12:59:24.266Z,7.56
2023-04-22T13:00:24.283Z,7.61
2023-04-22T13:01:24.361Z,6.20
2023-04-22T13:02:24.404Z,6.09
2023-04-22T13:03:24.418Z,5.47
2023-04-22T13:04:24.305Z,5.77
2023-04-22T13:05:24.252Z,5.84
2023-04-22T13:06:24.243Z,5.18
2023-04-22T13:07:24.212Z,6.09
2023-04-22T13:08:24.237Z,6.51
2023-04-22T13:09:24.236Z,6.37
2023-04-22T13:10:24.206Z,6.05
2023-04-22T13:11:24.285Z,6.18
2023-04-22T13:12:24.180Z,5.68
2023-04-22T13:13:24.208Z,5.23
2023-04-22T13:14:24.184Z,5.74